Hauptseite
METAR-TAF:

METAR-TAF

Flughäfen :

Birmingham Airport

Birmingham, England

Breite: 52-27N, Länge: 001-44W, Höhe: 99 m

Beobachtung

Neuester Wetterbericht von vor 31 Minuten, um 12:50 UTC
Wind 8 kt aus Nordwest
Temperatur 19°C
Luftfeuchtigkeit 56%
Luftdruck 1016 hPa
Sichtweite 10 km oder mehr
Durchbrochene Bewölkung in der Höhe von 4600 ft, Kumulonimbus.

METAR: EGBB 171250Z 31008KT 9999 BKN046CB 19/10 Q1016

Zeit: 14:21 (13:21 UTC)

Prognose

Neuester Wetterbericht von vor 2 Stunden und 28 Minuten, um 10:53 UTC
Gültige Prognose vom 17 um 12 UTC bis 18 um 12 UTC
Wind 5 kt aus West/Südwest
Sichtweite 10 km oder mehr
Aufgelockert bewölkt in der Höhe von 3000 ft
Wahrscheinlichkeit 30%
vom 18 um 03 UTC bis 18 um 06 UTC
Sichtweite: 8000 m

TAF: EGBB 171053Z 1712/1812 24005KT 9999 SCT030 PROB30 1803/1806 8000

Wetterbeobachtungen und Prognosen von mehr als 4000 Flughäfen (METAR und TAF Bericht).

Die verfügbaren Stationen werden durch gelbe und rote Markierungen auf der Karte dargestellt.

Führen Sie die Maus auf sie, um den Namen der Station zu sehen.

Darauf klicken, um die Beobachtung von Wetterbeobachtungen und Prognosen zu sehen.

Um die Karte zu ändern : klicken Sie auf den grünen Tasten mit einem schwarzen Kreuz Zum Vergrößern, auf den grünen Button mit einem Gedankenstrich zu verkleinern, oder auf die grünen Pfeile für benachbarte Karten.


METAR-TAF: